sensor_id;sensor_type;location;lat;lon;timestamp;P1;durP1;ratioP1;P2;durP2;ratioP2
19691;SDS011;42748;50.016;19.890;2024-02-26T00:02:22;32.28;;;13.60;;
19691;SDS011;42748;50.016;19.890;2024-02-26T00:04:49;31.63;;;14.25;;
19691;SDS011;42748;50.016;19.890;2024-02-26T00:07:17;31.10;;;14.65;;
19691;SDS011;42748;50.016;19.890;2024-02-26T00:09:45;30.60;;;14.93;;
19691;SDS011;42748;50.016;19.890;2024-02-26T00:12:13;30.17;;;14.82;;
19691;SDS011;42748;50.016;19.890;2024-02-26T00:14:40;33.72;;;15.13;;
19691;SDS011;42748;50.016;19.890;2024-02-26T00:17:09;29.02;;;13.70;;
19691;SDS011;42748;50.016;19.890;2024-02-26T00:19:36;29.75;;;14.90;;
19691;SDS011;42748;50.016;19.890;2024-02-26T00:22:04;29.10;;;14.80;;
19691;SDS011;42748;50.016;19.890;2024-02-26T00:24:32;32.97;;;16.05;;
19691;SDS011;42748;50.016;19.890;2024-02-26T00:27:00;33.58;;;15.77;;
19691;SDS011;42748;50.016;19.890;2024-02-26T00:29:28;34.38;;;15.93;;
19691;SDS011;42748;50.016;19.890;2024-02-26T00:31:55;35.80;;;15.93;;
19691;SDS011;42748;50.016;19.890;2024-02-26T00:34:23;33.65;;;15.20;;
19691;SDS011;42748;50.016;19.890;2024-02-26T00:36:51;29.17;;;14.45;;
19691;SDS011;42748;50.016;19.890;2024-02-26T00:39:19;26.60;;;13.20;;
19691;SDS011;42748;50.016;19.890;2024-02-26T00:41:46;28.33;;;13.30;;
19691;SDS011;42748;50.016;19.890;2024-02-26T00:44:14;27.48;;;14.23;;
19691;SDS011;42748;50.016;19.890;2024-02-26T00:46:42;32.40;;;14.00;;
19691;SDS011;42748;50.016;19.890;2024-02-26T00:49:09;31.23;;;15.52;;
19691;SDS011;42748;50.016;19.890;2024-02-26T00:51:38;35.28;;;14.30;;
19691;SDS011;42748;50.016;19.890;2024-02-26T00:54:05;29.95;;;15.43;;
19691;SDS011;42748;50.016;19.890;2024-02-26T00:56:33;32.55;;;15.85;;
19691;SDS011;42748;50.016;19.890;2024-02-26T00:59:01;31.13;;;15.13;;
19691;SDS011;42748;50.016;19.890;2024-02-26T01:01:28;31.25;;;15.02;;
19691;SDS011;42748;50.016;19.890;2024-02-26T01:03:56;32.13;;;14.27;;
19691;SDS011;42748;50.016;19.890;2024-02-26T01:06:24;28.33;;;14.35;;
19691;SDS011;42748;50.016;19.890;2024-02-26T01:08:51;32.13;;;14.38;;
19691;SDS011;42748;50.016;19.890;2024-02-26T01:11:19;31.98;;;15.13;;
19691;SDS011;42748;50.016;19.890;2024-02-26T01:13:47;33.05;;;14.82;;
19691;SDS011;42748;50.016;19.890;2024-02-26T01:16:15;30.55;;;15.02;;
19691;SDS011;42748;50.016;19.890;2024-02-26T01:18:42;28.00;;;13.98;;
19691;SDS011;42748;50.016;19.890;2024-02-26T01:21:11;31.67;;;14.27;;
19691;SDS011;42748;50.016;19.890;2024-02-26T01:23:39;30.33;;;14.60;;
19691;SDS011;42748;50.016;19.890;2024-02-26T01:26:06;30.10;;;14.32;;
19691;SDS011;42748;50.016;19.890;2024-02-26T01:28:34;30.60;;;13.95;;
19691;SDS011;42748;50.016;19.890;2024-02-26T01:31:02;29.40;;;14.27;;
19691;SDS011;42748;50.016;19.890;2024-02-26T01:33:31;38.97;;;15.10;;
19691;SDS011;42748;50.016;19.890;2024-02-26T01:36:00;33.10;;;15.85;;
19691;SDS011;42748;50.016;19.890;2024-02-26T01:38:28;34.13;;;16.50;;
19691;SDS011;42748;50.016;19.890;2024-02-26T01:40:56;42.45;;;19.48;;
19691;SDS011;42748;50.016;19.890;2024-02-26T01:43:24;43.15;;;21.75;;
19691;SDS011;42748;50.016;19.890;2024-02-26T01:45:52;45.33;;;22.60;;
19691;SDS011;42748;50.016;19.890;2024-02-26T01:48:19;48.63;;;22.37;;
19691;SDS011;42748;50.016;19.890;2024-02-26T01:50:48;47.87;;;22.33;;
19691;SDS011;42748;50.016;19.890;2024-02-26T01:53:16;50.75;;;22.00;;
19691;SDS011;42748;50.016;19.890;2024-02-26T01:55:44;51.58;;;22.95;;
19691;SDS011;42748;50.016;19.890;2024-02-26T01:58:12;52.43;;;24.13;;
19691;SDS011;42748;50.016;19.890;2024-02-26T02:00:40;52.03;;;23.50;;
19691;SDS011;42748;50.016;19.890;2024-02-26T02:03:07;50.97;;;22.48;;
19691;SDS011;42748;50.016;19.890;2024-02-26T02:05:36;50.03;;;23.53;;
19691;SDS011;42748;50.016;19.890;2024-02-26T02:08:12;50.20;;;23.10;;
19691;SDS011;42748;50.016;19.890;2024-02-26T02:10:43;54.97;;;23.45;;
19691;SDS011;42748;50.016;19.890;2024-02-26T02:13:14;53.97;;;23.98;;
19691;SDS011;42748;50.016;19.890;2024-02-26T02:15:41;49.25;;;22.90;;
19691;SDS011;42748;50.016;19.890;2024-02-26T02:18:09;45.83;;;21.30;;
19691;SDS011;42748;50.016;19.890;2024-02-26T02:20:38;47.33;;;21.23;;
19691;SDS011;42748;50.016;19.890;2024-02-26T02:23:05;43.97;;;20.98;;
19691;SDS011;42748;50.016;19.890;2024-02-26T02:25:33;38.50;;;19.57;;
19691;SDS011;42748;50.016;19.890;2024-02-26T02:28:01;46.85;;;20.27;;
19691;SDS011;42748;50.016;19.890;2024-02-26T02:30:29;41.67;;;19.70;;
19691;SDS011;42748;50.016;19.890;2024-02-26T02:32:57;39.28;;;18.98;;
19691;SDS011;42748;50.016;19.890;2024-02-26T02:35:27;40.53;;;19.85;;
19691;SDS011;42748;50.016;19.890;2024-02-26T02:37:56;41.23;;;18.97;;
19691;SDS011;42748;50.016;19.890;2024-02-26T02:40:24;40.00;;;18.80;;
19691;SDS011;42748;50.016;19.890;2024-02-26T02:42:52;35.97;;;18.33;;
19691;SDS011;42748;50.016;19.890;2024-02-26T02:45:19;43.67;;;20.07;;
19691;SDS011;42748;50.016;19.890;2024-02-26T02:47:47;42.70;;;19.70;;
19691;SDS011;42748;50.016;19.890;2024-02-26T02:50:15;43.23;;;20.63;;
19691;SDS011;42748;50.016;19.890;2024-02-26T02:52:43;44.37;;;21.47;;
19691;SDS011;42748;50.016;19.890;2024-02-26T02:55:10;46.83;;;21.60;;
19691;SDS011;42748;50.016;19.890;2024-02-26T02:57:38;43.70;;;20.63;;
19691;SDS011;42748;50.016;19.890;2024-02-26T03:00:09;39.10;;;19.53;;
19691;SDS011;42748;50.016;19.890;2024-02-26T03:02:37;43.93;;;19.30;;
19691;SDS011;42748;50.016;19.890;2024-02-26T03:05:05;43.90;;;19.13;;
19691;SDS011;42748;50.016;19.890;2024-02-26T03:07:33;44.03;;;20.00;;
19691;SDS011;42748;50.016;19.890;2024-02-26T03:10:01;43.27;;;20.27;;
19691;SDS011;42748;50.016;19.890;2024-02-26T03:12:29;41.63;;;20.17;;
19691;SDS011;42748;50.016;19.890;2024-02-26T03:14:57;49.03;;;21.43;;
19691;SDS011;42748;50.016;19.890;2024-02-26T03:17:27;49.03;;;22.13;;
19691;SDS011;42748;50.016;19.890;2024-02-26T03:19:55;41.27;;;20.40;;
19691;SDS011;42748;50.016;19.890;2024-02-26T03:22:22;45.27;;;20.77;;
19691;SDS011;42748;50.016;19.890;2024-02-26T03:24:50;46.13;;;20.37;;
19691;SDS011;42748;50.016;19.890;2024-02-26T03:27:17;47.00;;;21.13;;
19691;SDS011;42748;50.016;19.890;2024-02-26T03:29:45;45.93;;;20.03;;
19691;SDS011;42748;50.016;19.890;2024-02-26T03:32:14;42.10;;;20.27;;
19691;SDS011;42748;50.016;19.890;2024-02-26T03:34:42;40.87;;;19.90;;
19691;SDS011;42748;50.016;19.890;2024-02-26T03:37:09;44.13;;;19.27;;
19691;SDS011;42748;50.016;19.890;2024-02-26T03:39:37;40.77;;;19.70;;
19691;SDS011;42748;50.016;19.890;2024-02-26T03:42:05;43.13;;;19.67;;
19691;SDS011;42748;50.016;19.890;2024-02-26T03:44:33;43.60;;;19.90;;
19691;SDS011;42748;50.016;19.890;2024-02-26T03:47:00;42.47;;;18.50;;
19691;SDS011;42748;50.016;19.890;2024-02-26T03:49:28;47.37;;;20.67;;
19691;SDS011;42748;50.016;19.890;2024-02-26T03:51:56;44.07;;;20.90;;
19691;SDS011;42748;50.016;19.890;2024-02-26T03:54:24;46.07;;;21.40;;
19691;SDS011;42748;50.016;19.890;2024-02-26T03:56:51;46.13;;;22.03;;
19691;SDS011;42748;50.016;19.890;2024-02-26T03:59:19;46.60;;;22.53;;
19691;SDS011;42748;50.016;19.890;2024-02-26T04:01:48;46.43;;;21.57;;
19691;SDS011;42748;50.016;19.890;2024-02-26T04:04:16;46.57;;;22.13;;
19691;SDS011;42748;50.016;19.890;2024-02-26T04:06:47;49.53;;;22.80;;
19691;SDS011;42748;50.016;19.890;2024-02-26T04:09:15;44.20;;;20.60;;
19691;SDS011;42748;50.016;19.890;2024-02-26T04:11:43;47.43;;;23.00;;
19691;SDS011;42748;50.016;19.890;2024-02-26T04:14:11;49.57;;;22.43;;
19691;SDS011;42748;50.016;19.890;2024-02-26T04:16:39;46.80;;;21.50;;
19691;SDS011;42748;50.016;19.890;2024-02-26T04:19:06;48.23;;;21.80;;
19691;SDS011;42748;50.016;19.890;2024-02-26T04:21:35;47.60;;;21.13;;
19691;SDS011;42748;50.016;19.890;2024-02-26T04:24:02;44.70;;;21.30;;
19691;SDS011;42748;50.016;19.890;2024-02-26T04:26:30;47.87;;;22.20;;
19691;SDS011;42748;50.016;19.890;2024-02-26T04:28:58;45.63;;;21.63;;
19691;SDS011;42748;50.016;19.890;2024-02-26T04:31:26;47.07;;;22.30;;
19691;SDS011;42748;50.016;19.890;2024-02-26T04:33:54;54.53;;;24.77;;
19691;SDS011;42748;50.016;19.890;2024-02-26T04:36:21;54.33;;;24.47;;
19691;SDS011;42748;50.016;19.890;2024-02-26T04:38:50;47.80;;;23.50;;
19691;SDS011;42748;50.016;19.890;2024-02-26T04:41:21;44.60;;;21.83;;
19691;SDS011;42748;50.016;19.890;2024-02-26T04:43:49;45.43;;;21.03;;
19691;SDS011;42748;50.016;19.890;2024-02-26T04:46:17;45.47;;;21.93;;
19691;SDS011;42748;50.016;19.890;2024-02-26T04:48:45;46.27;;;21.10;;
19691;SDS011;42748;50.016;19.890;2024-02-26T04:51:13;44.90;;;21.03;;
19691;SDS011;42748;50.016;19.890;2024-02-26T04:53:41;48.77;;;21.57;;
19691;SDS011;42748;50.016;19.890;2024-02-26T04:56:10;51.37;;;23.67;;
19691;SDS011;42748;50.016;19.890;2024-02-26T04:58:38;52.20;;;23.10;;
19691;SDS011;42748;50.016;19.890;2024-02-26T05:01:06;46.80;;;22.10;;
19691;SDS011;42748;50.016;19.890;2024-02-26T05:03:36;46.50;;;22.03;;
19691;SDS011;42748;50.016;19.890;2024-02-26T05:06:05;48.10;;;22.43;;
19691;SDS011;42748;50.016;19.890;2024-02-26T05:08:33;44.50;;;21.57;;
19691;SDS011;42748;50.016;19.890;2024-02-26T05:11:02;47.37;;;21.27;;
19691;SDS011;42748;50.016;19.890;2024-02-26T05:13:30;47.87;;;22.23;;
19691;SDS011;42748;50.016;19.890;2024-02-26T05:15:58;48.77;;;22.43;;
19691;SDS011;42748;50.016;19.890;2024-02-26T05:18:28;48.57;;;22.73;;
19691;SDS011;42748;50.016;19.890;2024-02-26T05:20:56;51.00;;;23.07;;
19691;SDS011;42748;50.016;19.890;2024-02-26T05:23:24;51.17;;;22.97;;
19691;SDS011;42748;50.016;19.890;2024-02-26T05:25:52;52.93;;;23.73;;
19691;SDS011;42748;50.016;19.890;2024-02-26T05:28:19;50.13;;;23.50;;
19691;SDS011;42748;50.016;19.890;2024-02-26T05:30:47;51.53;;;23.70;;
19691;SDS011;42748;50.016;19.890;2024-02-26T05:33:15;52.33;;;23.27;;
19691;SDS011;42748;50.016;19.890;2024-02-26T05:35:44;54.17;;;24.17;;
19691;SDS011;42748;50.016;19.890;2024-02-26T05:38:13;48.53;;;23.77;;
19691;SDS011;42748;50.016;19.890;2024-02-26T05:40:40;49.57;;;23.30;;
19691;SDS011;42748;50.016;19.890;2024-02-26T05:43:08;54.10;;;25.83;;
19691;SDS011;42748;50.016;19.890;2024-02-26T05:45:36;52.33;;;23.73;;
19691;SDS011;42748;50.016;19.890;2024-02-26T05:48:04;51.43;;;23.87;;
19691;SDS011;42748;50.016;19.890;2024-02-26T05:50:32;53.13;;;25.03;;
19691;SDS011;42748;50.016;19.890;2024-02-26T05:53:00;56.83;;;24.17;;
19691;SDS011;42748;50.016;19.890;2024-02-26T05:55:27;55.87;;;25.80;;
19691;SDS011;42748;50.016;19.890;2024-02-26T05:57:55;52.97;;;24.30;;
19691;SDS011;42748;50.016;19.890;2024-02-26T06:00:23;55.00;;;25.57;;
19691;SDS011;42748;50.016;19.890;2024-02-26T06:02:50;60.07;;;26.63;;
19691;SDS011;42748;50.016;19.890;2024-02-26T06:05:18;58.30;;;26.73;;
19691;SDS011;42748;50.016;19.890;2024-02-26T06:07:45;64.60;;;26.40;;
19691;SDS011;42748;50.016;19.890;2024-02-26T06:10:13;59.37;;;26.47;;
19691;SDS011;42748;50.016;19.890;2024-02-26T06:12:41;53.17;;;25.90;;
19691;SDS011;42748;50.016;19.890;2024-02-26T06:15:09;54.30;;;24.93;;
19691;SDS011;42748;50.016;19.890;2024-02-26T06:17:37;54.83;;;25.47;;
19691;SDS011;42748;50.016;19.890;2024-02-26T06:20:05;61.17;;;26.40;;
19691;SDS011;42748;50.016;19.890;2024-02-26T06:22:33;53.43;;;25.27;;
19691;SDS011;42748;50.016;19.890;2024-02-26T06:25:01;60.33;;;27.03;;
19691;SDS011;42748;50.016;19.890;2024-02-26T06:27:29;59.23;;;26.57;;
19691;SDS011;42748;50.016;19.890;2024-02-26T06:29:57;55.80;;;25.73;;
19691;SDS011;42748;50.016;19.890;2024-02-26T06:32:24;52.40;;;25.40;;
19691;SDS011;42748;50.016;19.890;2024-02-26T06:34:54;57.20;;;26.70;;
19691;SDS011;42748;50.016;19.890;2024-02-26T06:37:22;53.93;;;27.07;;
19691;SDS011;42748;50.016;19.890;2024-02-26T06:39:50;60.77;;;28.13;;
19691;SDS011;42748;50.016;19.890;2024-02-26T06:42:18;59.47;;;29.33;;
19691;SDS011;42748;50.016;19.890;2024-02-26T06:44:46;64.33;;;28.60;;
19691;SDS011;42748;50.016;19.890;2024-02-26T06:47:14;59.33;;;28.60;;
19691;SDS011;42748;50.016;19.890;2024-02-26T06:49:41;73.00;;;31.37;;
19691;SDS011;42748;50.016;19.890;2024-02-26T06:52:10;70.97;;;29.97;;
19691;SDS011;42748;50.016;19.890;2024-02-26T06:54:38;60.43;;;28.33;;
19691;SDS011;42748;50.016;19.890;2024-02-26T06:57:06;66.60;;;28.90;;
19691;SDS011;42748;50.016;19.890;2024-02-26T06:59:33;66.23;;;28.97;;
19691;SDS011;42748;50.016;19.890;2024-02-26T07:02:01;66.60;;;29.57;;
19691;SDS011;42748;50.016;19.890;2024-02-26T07:04:29;58.57;;;27.97;;
19691;SDS011;42748;50.016;19.890;2024-02-26T07:07:01;60.58;;;27.85;;
19691;SDS011;42748;50.016;19.890;2024-02-26T07:09:29;63.42;;;29.23;;
19691;SDS011;42748;50.016;19.890;2024-02-26T07:11:56;57.10;;;28.17;;
19691;SDS011;42748;50.016;19.890;2024-02-26T07:14:27;60.65;;;27.75;;
19691;SDS011;42748;50.016;19.890;2024-02-26T07:16:55;60.03;;;27.38;;
19691;SDS011;42748;50.016;19.890;2024-02-26T07:19:23;60.15;;;26.92;;
19691;SDS011;42748;50.016;19.890;2024-02-26T07:21:51;58.20;;;26.75;;
19691;SDS011;42748;50.016;19.890;2024-02-26T07:24:18;55.85;;;26.58;;
19691;SDS011;42748;50.016;19.890;2024-02-26T07:26:46;65.47;;;27.48;;
19691;SDS011;42748;50.016;19.890;2024-02-26T07:29:13;59.97;;;28.60;;
19691;SDS011;42748;50.016;19.890;2024-02-26T07:31:41;55.75;;;27.45;;
19691;SDS011;42748;50.016;19.890;2024-02-26T07:34:09;55.47;;;28.00;;
19691;SDS011;42748;50.016;19.890;2024-02-26T07:36:37;61.25;;;27.50;;
19691;SDS011;42748;50.016;19.890;2024-02-26T07:39:04;65.60;;;28.55;;
19691;SDS011;42748;50.016;19.890;2024-02-26T07:41:32;64.22;;;28.42;;
19691;SDS011;42748;50.016;19.890;2024-02-26T07:44:00;58.50;;;26.98;;
19691;SDS011;42748;50.016;19.890;2024-02-26T07:46:27;58.90;;;26.33;;
19691;SDS011;42748;50.016;19.890;2024-02-26T07:48:55;55.63;;;25.67;;
19691;SDS011;42748;50.016;19.890;2024-02-26T07:51:23;53.90;;;26.45;;
19691;SDS011;42748;50.016;19.890;2024-02-26T07:53:52;52.83;;;26.30;;
19691;SDS011;42748;50.016;19.890;2024-02-26T07:56:20;55.05;;;25.08;;
19691;SDS011;42748;50.016;19.890;2024-02-26T07:58:47;51.55;;;23.77;;
19691;SDS011;42748;50.016;19.890;2024-02-26T08:01:17;47.25;;;23.05;;
19691;SDS011;42748;50.016;19.890;2024-02-26T08:03:45;42.08;;;21.08;;
19691;SDS011;42748;50.016;19.890;2024-02-26T08:06:13;41.80;;;20.58;;
19691;SDS011;42748;50.016;19.890;2024-02-26T08:08:41;39.67;;;20.10;;
19691;SDS011;42748;50.016;19.890;2024-02-26T08:11:09;42.03;;;18.98;;
19691;SDS011;42748;50.016;19.890;2024-02-26T08:13:37;37.22;;;19.23;;
19691;SDS011;42748;50.016;19.890;2024-02-26T08:16:05;25.73;;;14.23;;
19691;SDS011;42748;50.016;19.890;2024-02-26T08:18:32;38.03;;;17.45;;
19691;SDS011;42748;50.016;19.890;2024-02-26T08:21:00;38.45;;;18.50;;
19691;SDS011;42748;50.016;19.890;2024-02-26T08:23:29;37.05;;;17.83;;
19691;SDS011;42748;50.016;19.890;2024-02-26T08:25:58;37.65;;;17.48;;
19691;SDS011;42748;50.016;19.890;2024-02-26T08:28:26;37.08;;;17.42;;
19691;SDS011;42748;50.016;19.890;2024-02-26T08:30:53;30.00;;;15.60;;
19691;SDS011;42748;50.016;19.890;2024-02-26T08:33:21;35.65;;;16.75;;
19691;SDS011;42748;50.016;19.890;2024-02-26T08:35:49;36.63;;;16.27;;
19691;SDS011;42748;50.016;19.890;2024-02-26T08:38:16;33.58;;;16.40;;
19691;SDS011;42748;50.016;19.890;2024-02-26T08:40:44;31.02;;;15.98;;
19691;SDS011;42748;50.016;19.890;2024-02-26T08:43:12;33.50;;;15.98;;
19691;SDS011;42748;50.016;19.890;2024-02-26T08:45:40;28.50;;;14.57;;
19691;SDS011;42748;50.016;19.890;2024-02-26T08:48:08;30.23;;;14.15;;
19691;SDS011;42748;50.016;19.890;2024-02-26T08:50:36;31.33;;;14.73;;
19691;SDS011;42748;50.016;19.890;2024-02-26T08:53:04;34.67;;;14.43;;
19691;SDS011;42748;50.016;19.890;2024-02-26T08:55:33;28.40;;;13.65;;
19691;SDS011;42748;50.016;19.890;2024-02-26T08:58:01;32.03;;;13.77;;
19691;SDS011;42748;50.016;19.890;2024-02-26T09:00:28;26.65;;;12.65;;
19691;SDS011;42748;50.016;19.890;2024-02-26T09:02:57;26.65;;;12.48;;
19691;SDS011;42748;50.016;19.890;2024-02-26T09:05:30;26.13;;;12.20;;
19691;SDS011;42748;50.016;19.890;2024-02-26T09:07:58;20.98;;;11.43;;
19691;SDS011;42748;50.016;19.890;2024-02-26T09:10:25;17.50;;;9.57;;
19691;SDS011;42748;50.016;19.890;2024-02-26T09:12:53;15.27;;;6.93;;
19691;SDS011;42748;50.016;19.890;2024-02-26T09:15:21;14.73;;;6.57;;
19691;SDS011;42748;50.016;19.890;2024-02-26T09:17:49;15.70;;;7.20;;
19691;SDS011;42748;50.016;19.890;2024-02-26T09:20:18;20.20;;;8.43;;
19691;SDS011;42748;50.016;19.890;2024-02-26T09:22:50;16.02;;;8.40;;
19691;SDS011;42748;50.016;19.890;2024-02-26T09:25:18;19.52;;;7.82;;
19691;SDS011;42748;50.016;19.890;2024-02-26T09:27:46;14.52;;;7.45;;
19691;SDS011;42748;50.016;19.890;2024-02-26T09:30:14;15.15;;;8.15;;
19691;SDS011;42748;50.016;19.890;2024-02-26T09:32:45;17.75;;;8.70;;
19691;SDS011;42748;50.016;19.890;2024-02-26T09:35:13;19.75;;;9.27;;
19691;SDS011;42748;50.016;19.890;2024-02-26T09:37:41;15.68;;;8.75;;
19691;SDS011;42748;50.016;19.890;2024-02-26T09:40:11;16.58;;;8.68;;
19691;SDS011;42748;50.016;19.890;2024-02-26T09:42:43;18.25;;;8.85;;
19691;SDS011;42748;50.016;19.890;2024-02-26T09:45:17;20.48;;;8.75;;
19691;SDS011;42748;50.016;19.890;2024-02-26T09:47:47;20.40;;;8.52;;
19691;SDS011;42748;50.016;19.890;2024-02-26T09:50:17;19.15;;;9.23;;
19691;SDS011;42748;50.016;19.890;2024-02-26T09:52:49;22.75;;;9.90;;
19691;SDS011;42748;50.016;19.890;2024-02-26T09:55:18;22.33;;;9.93;;
19691;SDS011;42748;50.016;19.890;2024-02-26T09:57:46;20.55;;;9.98;;
19691;SDS011;42748;50.016;19.890;2024-02-26T10:00:17;20.10;;;9.48;;
19691;SDS011;42748;50.016;19.890;2024-02-26T10:02:48;16.52;;;9.18;;
19691;SDS011;42748;50.016;19.890;2024-02-26T10:05:16;19.25;;;10.88;;
19691;SDS011;42748;50.016;19.890;2024-02-26T10:07:47;17.83;;;9.52;;
19691;SDS011;42748;50.016;19.890;2024-02-26T10:10:15;22.48;;;10.15;;
19691;SDS011;42748;50.016;19.890;2024-02-26T10:12:43;20.92;;;9.90;;
19691;SDS011;42748;50.016;19.890;2024-02-26T10:15:11;23.38;;;9.27;;
19691;SDS011;42748;50.016;19.890;2024-02-26T10:17:39;21.83;;;10.00;;
19691;SDS011;42748;50.016;19.890;2024-02-26T10:20:11;22.27;;;9.50;;
19691;SDS011;42748;50.016;19.890;2024-02-26T10:22:40;18.77;;;9.40;;
19691;SDS011;42748;50.016;19.890;2024-02-26T10:25:08;22.65;;;10.13;;
19691;SDS011;42748;50.016;19.890;2024-02-26T10:27:36;20.75;;;9.65;;
19691;SDS011;42748;50.016;19.890;2024-02-26T10:30:13;21.63;;;8.60;;
19691;SDS011;42748;50.016;19.890;2024-02-26T10:32:48;18.73;;;7.53;;
19691;SDS011;42748;50.016;19.890;2024-02-26T10:35:17;15.93;;;7.75;;
19691;SDS011;42748;50.016;19.890;2024-02-26T10:37:46;16.50;;;7.75;;
19691;SDS011;42748;50.016;19.890;2024-02-26T10:40:14;12.98;;;7.50;;
19691;SDS011;42748;50.016;19.890;2024-02-26T10:42:42;13.65;;;6.78;;
19691;SDS011;42748;50.016;19.890;2024-02-26T10:45:10;18.20;;;6.80;;
19691;SDS011;42748;50.016;19.890;2024-02-26T10:47:38;13.35;;;6.55;;
19691;SDS011;42748;50.016;19.890;2024-02-26T10:50:08;11.60;;;6.22;;
19691;SDS011;42748;50.016;19.890;2024-02-26T10:52:36;10.13;;;4.90;;
19691;SDS011;42748;50.016;19.890;2024-02-26T10:55:05;9.80;;;4.47;;
19691;SDS011;42748;50.016;19.890;2024-02-26T11:00:08;7.32;;;3.75;;
19691;SDS011;42748;50.016;19.890;2024-02-26T11:02:40;11.55;;;3.63;;
19691;SDS011;42748;50.016;19.890;2024-02-26T11:05:08;7.70;;;3.53;;
19691;SDS011;42748;50.016;19.890;2024-02-26T11:07:36;5.28;;;3.30;;
19691;SDS011;42748;50.016;19.890;2024-02-26T11:10:05;9.60;;;3.92;;
19691;SDS011;42748;50.016;19.890;2024-02-26T11:12:33;7.80;;;3.20;;
19691;SDS011;42748;50.016;19.890;2024-02-26T11:15:05;7.75;;;3.15;;
19691;SDS011;42748;50.016;19.890;2024-02-26T11:17:33;6.05;;;2.83;;
19691;SDS011;42748;50.016;19.890;2024-02-26T11:20:01;4.85;;;2.80;;
19691;SDS011;42748;50.016;19.890;2024-02-26T11:22:29;5.38;;;2.60;;
19691;SDS011;42748;50.016;19.890;2024-02-26T11:24:57;6.72;;;2.30;;
19691;SDS011;42748;50.016;19.890;2024-02-26T11:27:28;2.95;;;1.85;;
19691;SDS011;42748;50.016;19.890;2024-02-26T11:29:57;3.85;;;1.90;;
19691;SDS011;42748;50.016;19.890;2024-02-26T11:32:27;5.32;;;2.35;;
19691;SDS011;42748;50.016;19.890;2024-02-26T11:34:58;5.28;;;2.13;;
19691;SDS011;42748;50.016;19.890;2024-02-26T11:37:26;6.45;;;2.25;;
19691;SDS011;42748;50.016;19.890;2024-02-26T11:39:54;4.40;;;2.38;;
19691;SDS011;42748;50.016;19.890;2024-02-26T11:42:23;3.10;;;2.00;;
19691;SDS011;42748;50.016;19.890;2024-02-26T11:44:52;7.43;;;2.38;;
19691;SDS011;42748;50.016;19.890;2024-02-26T11:47:21;9.23;;;2.55;;
19691;SDS011;42748;50.016;19.890;2024-02-26T11:49:49;4.88;;;2.28;;
19691;SDS011;42748;50.016;19.890;2024-02-26T11:52:17;3.85;;;2.35;;
19691;SDS011;42748;50.016;19.890;2024-02-26T12:02:44;3.70;;;2.50;;
19691;SDS011;42748;50.016;19.890;2024-02-26T12:05:20;3.65;;;2.30;;
19691;SDS011;42748;50.016;19.890;2024-02-26T12:07:54;5.78;;;2.15;;
19691;SDS011;42748;50.016;19.890;2024-02-26T12:10:35;3.80;;;2.33;;
19691;SDS011;42748;50.016;19.890;2024-02-26T12:15:37;6.82;;;2.40;;
19691;SDS011;42748;50.016;19.890;2024-02-26T12:18:06;3.33;;;2.42;;
19691;SDS011;42748;50.016;19.890;2024-02-26T12:20:43;3.47;;;2.10;;
19691;SDS011;42748;50.016;19.890;2024-02-26T12:23:14;5.35;;;2.42;;
19691;SDS011;42748;50.016;19.890;2024-02-26T12:25:43;5.80;;;2.88;;
19691;SDS011;42748;50.016;19.890;2024-02-26T12:28:11;5.25;;;2.33;;
19691;SDS011;42748;50.016;19.890;2024-02-26T12:30:39;5.80;;;2.60;;
19691;SDS011;42748;50.016;19.890;2024-02-26T12:33:06;3.72;;;2.45;;
19691;SDS011;42748;50.016;19.890;2024-02-26T12:35:35;4.10;;;2.42;;
19691;SDS011;42748;50.016;19.890;2024-02-26T12:38:03;3.95;;;2.33;;
19691;SDS011;42748;50.016;19.890;2024-02-26T12:40:31;6.43;;;2.63;;
19691;SDS011;42748;50.016;19.890;2024-02-26T12:42:59;5.18;;;2.75;;
19691;SDS011;42748;50.016;19.890;2024-02-26T12:45:28;4.90;;;2.72;;
19691;SDS011;42748;50.016;19.890;2024-02-26T12:47:56;7.13;;;3.00;;
19691;SDS011;42748;50.016;19.890;2024-02-26T12:50:23;4.50;;;2.65;;
19691;SDS011;42748;50.016;19.890;2024-02-26T12:52:51;4.30;;;2.63;;
19691;SDS011;42748;50.016;19.890;2024-02-26T12:55:19;5.45;;;2.60;;
19691;SDS011;42748;50.016;19.890;2024-02-26T12:57:48;5.63;;;2.90;;
19691;SDS011;42748;50.016;19.890;2024-02-26T13:00:16;7.28;;;2.92;;
19691;SDS011;42748;50.016;19.890;2024-02-26T13:02:45;3.80;;;2.63;;
19691;SDS011;42748;50.016;19.890;2024-02-26T13:05:13;4.65;;;2.72;;
19691;SDS011;42748;50.016;19.890;2024-02-26T13:07:45;6.00;;;2.80;;
19691;SDS011;42748;50.016;19.890;2024-02-26T13:10:16;4.13;;;2.67;;
19691;SDS011;42748;50.016;19.890;2024-02-26T13:12:45;5.50;;;3.00;;
19691;SDS011;42748;50.016;19.890;2024-02-26T13:15:14;4.82;;;2.78;;
19691;SDS011;42748;50.016;19.890;2024-02-26T13:17:42;4.90;;;2.88;;
19691;SDS011;42748;50.016;19.890;2024-02-26T13:20:13;7.97;;;3.03;;
19691;SDS011;42748;50.016;19.890;2024-02-26T13:22:42;7.57;;;2.90;;
19691;SDS011;42748;50.016;19.890;2024-02-26T13:25:10;7.07;;;3.13;;
19691;SDS011;42748;50.016;19.890;2024-02-26T13:27:37;9.60;;;2.92;;
19691;SDS011;42748;50.016;19.890;2024-02-26T13:32:36;6.85;;;3.03;;
19691;SDS011;42748;50.016;19.890;2024-02-26T13:35:08;6.72;;;2.85;;
19691;SDS011;42748;50.016;19.890;2024-02-26T13:37:36;7.10;;;2.92;;
19691;SDS011;42748;50.016;19.890;2024-02-26T13:40:08;5.75;;;3.30;;
19691;SDS011;42748;50.016;19.890;2024-02-26T13:42:37;6.43;;;3.10;;
19691;SDS011;42748;50.016;19.890;2024-02-26T13:45:05;6.78;;;3.05;;
19691;SDS011;42748;50.016;19.890;2024-02-26T13:47:35;5.70;;;3.08;;
19691;SDS011;42748;50.016;19.890;2024-02-26T13:50:04;5.25;;;2.97;;
19691;SDS011;42748;50.016;19.890;2024-02-26T13:52:32;10.27;;;3.15;;
19691;SDS011;42748;50.016;19.890;2024-02-26T13:55:01;9.43;;;2.90;;
19691;SDS011;42748;50.016;19.890;2024-02-26T13:57:30;6.13;;;3.35;;
19691;SDS011;42748;50.016;19.890;2024-02-26T14:00:07;6.28;;;3.10;;
19691;SDS011;42748;50.016;19.890;2024-02-26T14:02:39;7.43;;;3.47;;
19691;SDS011;42748;50.016;19.890;2024-02-26T14:05:09;6.38;;;3.42;;
19691;SDS011;42748;50.016;19.890;2024-02-26T14:07:37;5.65;;;3.25;;
19691;SDS011;42748;50.016;19.890;2024-02-26T14:10:05;5.13;;;3.10;;
19691;SDS011;42748;50.016;19.890;2024-02-26T14:12:34;7.97;;;3.40;;
19691;SDS011;42748;50.016;19.890;2024-02-26T14:15:03;6.70;;;3.10;;
19691;SDS011;42748;50.016;19.890;2024-02-26T14:17:31;9.63;;;3.30;;
19691;SDS011;42748;50.016;19.890;2024-02-26T14:20:00;7.93;;;2.72;;
19691;SDS011;42748;50.016;19.890;2024-02-26T14:22:28;14.60;;;3.38;;
19691;SDS011;42748;50.016;19.890;2024-02-26T14:24:57;7.05;;;3.78;;
19691;SDS011;42748;50.016;19.890;2024-02-26T14:27:26;10.02;;;3.60;;
19691;SDS011;42748;50.016;19.890;2024-02-26T14:29:53;9.70;;;4.32;;
19691;SDS011;42748;50.016;19.890;2024-02-26T14:32:22;13.02;;;4.40;;
19691;SDS011;42748;50.016;19.890;2024-02-26T14:34:50;8.30;;;3.58;;
19691;SDS011;42748;50.016;19.890;2024-02-26T14:37:18;10.95;;;3.70;;
19691;SDS011;42748;50.016;19.890;2024-02-26T14:39:46;5.60;;;3.17;;